Aérodrome :
LOGIN :

S'inscrire | Disclaimer

   EN    FR    IT 

 










Légende :    VFR   VFR Marginal   IFR   IFR Intensif   IFR Très Intensif
Visi : 
Plafond : 
>= 8 km
>= 3000ft
5 à 8 km
1000 à 3000 ft
1500m à 5 km
500 à 1000 ft
800 à 1500m
200 à 500 ft
< 800m
< 200 ft
Symboles :   Orages  Brouillard  Fortes neiges  Fortes précipitations  Vent > 20 kt
SIGMETs :   Divers  Orages  Givrage  Turbulence  Onde Orograph.  Cendres Volcan.







- Altitude de l'aérodrome : 392 ft
- Code IATA : CDG
- Voir les cartes d'approche


LFPG - Paris-Aeroport Charles De Gaulle

DERNIER METAR :
  • 250430Z 25011KT 9999 FEW041 SCT050 BKN110 13/09 Q1013 NOSIG

METARs EXPIRÉS :
  • 250400Z 25009KT 9999 SCT041 SCT110 13/09 Q1013 NOSIG
  • 250330Z 25009KT 9999 BKN041 13/09 Q1013 NOSIG
  • 250300Z 25008KT 9999 BKN042 BKN120 13/09 Q1013 NOSIG
  • 250230Z 26008KT 9999 SCT043 13/09 Q1013 NOSIG
  • 250200Z 25009KT 9999 FEW034 13/09 Q1013 NOSIG

TAF TAF LFPG
Valide du 25 à 00h jusqu'au 26 à 06h UTC


242300Z 2500/2606 24010KT 9999 FEW045
PROB40
TEMPO 2507/2510 BKN012
TEMPO 2515/2518 29015G25KT TX17/2515Z TN08/2606Z
ATIS : +33 1 48 62 10 92
Pas de NOTAMs connus pour ce terrain.



MET'MAP, la Météo Aéronautique d'un coup d'oeil ! - Copyright ORBIFLY Décembre 2007 - Disclaimer

ORBIFLY MET'MAP TEAM :

Programmation & Développement : Alexandra Zaïnal
Conception & Développement : Baudouin d'Aumeries
Co-Programmation & Développement : Marc-Olivier Méhu
Soutien technique & logistique : Manuel Goepfert

Contact : metmap@orbifly.com




SOURCES & CREDITS :

   NOAA